Time;durP1;ratioP1;P1;durP2;ratioP2;P2;SDS_P1;SDS_P2;PMS_P1;PMS_P2;Temp;Humidity;BMP_temperature;BMP_pressure;BME280_temperature;BME280_humidity;BME280_pressure;Samples;Min_cycle;Max_cycle;Signal;HPM_P1;HPM_P2
2022/04/28 00:01:40;;;;;;;;;30.50;28.25;;;;;14.56;48.25;101786.03;5035420;28;45355;-57
2022/04/28 00:04:05;;;;;;;;;35.50;32.50;;;;;14.52;48.03;101782.00;5068315;28;45317;-56
2022/04/28 00:06:30;;;;;;;;;33.00;32.00;;;;;14.40;48.07;101784.53;5035228;28;45457;-51
2022/04/28 00:08:56;;;;;;;;;31.50;28.25;;;;;14.34;48.39;101779.88;5034355;28;45477;-53
2022/04/28 00:11:21;;;;;;;;;25.25;25.25;;;;;14.22;48.71;101786.03;5035719;28;45443;-55
2022/04/28 00:13:47;;;;;;;;;32.25;29.75;;;;;14.17;48.65;101780.28;5035591;28;45611;-53
2022/04/28 00:16:12;;;;;;;;;33.75;28.50;;;;;14.08;48.79;101782.41;5034225;28;46362;-55
2022/04/28 00:18:38;;;;;;;;;35.75;31.25;;;;;13.98;48.99;101781.13;5035341;28;45291;-55
2022/04/28 00:21:03;;;;;;;;;32.25;31.75;;;;;14.00;49.35;101784.50;5035137;28;45374;-53
2022/04/28 00:23:29;;;;;;;;;34.75;29.50;;;;;14.00;48.85;101773.47;5034457;28;45407;-56
2022/04/28 00:25:54;;;;;;;;;29.50;29.50;;;;;13.88;49.20;101754.75;5033564;28;45286;-51
2022/04/28 00:28:20;;;;;;;;;33.75;31.00;;;;;13.82;48.85;101744.56;5035466;28;45227;-50
2022/04/28 00:30:46;;;;;;;;;26.00;25.60;;;;;13.95;49.19;101771.34;5034975;28;45399;-57
2022/04/28 00:33:11;;;;;;;;;33.75;33.00;;;;;13.92;48.95;101772.59;5034277;28;45441;-56
2022/04/28 00:35:38;;;;;;;;;37.25;33.00;;;;;13.69;48.93;101739.88;5035037;28;46088;-56
2022/04/28 00:38:04;;;;;;;;;31.60;29.60;;;;;13.82;49.56;101756.44;5035048;28;45439;-53
2022/04/28 00:40:29;;;;;;;;;38.25;33.25;;;;;13.86;48.92;101764.34;5035185;28;45319;-49
2022/04/28 00:43:18;;;;;;;;;32.50;29.75;;;;;13.73;49.22;101734.78;5034753;28;45634;-52
2022/04/28 00:45:40;;;;;;;;;34.00;26.40;;;;;13.46;48.87;101704.38;5034667;28;45453;-54
2022/04/28 00:50:50;;;;;;;;;36.60;34.00;;;;;13.76;49.38;101773.84;5034863;28;45390;-50
2022/04/28 00:53:15;;;;;;;;;36.75;31.00;;;;;13.67;49.73;101758.56;5034144;28;45521;-55
2022/04/28 00:55:41;;;;;;;;;43.00;33.25;;;;;13.71;49.00;101767.25;5034411;28;45611;-52
2022/04/28 00:58:07;;;;;;;;;30.50;26.25;;;;;13.65;49.45;101774.44;5032996;28;45431;-53
2022/04/28 01:00:33;;;;;;;;;30.50;28.75;;;;;13.52;49.74;101764.22;5037899;28;45465;-51
2022/04/28 01:02:58;;;;;;;;;37.20;32.20;;;;;13.53;49.74;101766.78;5037827;28;45272;-57
2022/04/28 01:05:26;;;;;;;;;33.00;32.75;;;;;13.50;50.02;101764.44;5038068;28;45178;-56
2022/04/28 01:07:51;;;;;;;;;29.80;27.20;;;;;13.51;49.72;101774.41;5038675;28;45282;-57
2022/04/28 01:10:17;;;;;;;;;35.00;31.00;;;;;13.61;49.57;101770.41;5004687;28;45357;-53
2022/04/28 01:12:43;;;;;;;;;35.50;34.00;;;;;13.65;49.59;101761.50;5039101;28;45203;-50
2022/04/28 01:15:09;;;;;;;;;32.80;30.80;;;;;13.38;50.04;101750.34;5038521;28;45565;-51
2022/04/28 01:17:35;;;;;;;;;35.00;32.75;;;;;13.54;49.42;101764.84;5070566;28;45437;-52
2022/04/28 01:20:00;;;;;;;;;28.00;24.25;;;;;13.25;49.79;101734.59;5038714;28;45291;-55
2022/04/28 01:22:26;;;;;;;;;33.75;31.00;;;;;13.41;49.82;101754.63;5037172;28;45711;-55
2022/04/28 01:24:51;;;;;;;;;33.00;28.50;;;;;13.52;49.70;101758.72;5038418;28;45399;-51
2022/04/28 01:27:17;;;;;;;;;33.00;30.50;;;;;13.50;49.53;101752.56;5038422;28;45433;-54
2022/04/28 01:29:42;;;;;;;;;30.75;30.75;;;;;13.54;49.93;101759.34;5053915;28;45454;-54
2022/04/28 01:32:08;;;;;;;;;34.75;32.25;;;;;13.46;49.99;101759.53;5070968;28;45457;-52
2022/04/28 01:34:33;;;;;;;;;35.75;30.50;;;;;13.47;49.75;101755.72;5037872;28;45253;-53
2022/04/28 01:36:59;;;;;;;;;35.25;33.25;;;;;13.38;49.96;101758.63;5037992;28;45370;-53
2022/04/28 01:39:24;;;;;;;;;40.25;33.00;;;;;13.37;49.98;101756.94;5036754;28;45345;-54
2022/04/28 01:41:50;;;;;;;;;37.25;33.75;;;;;13.23;50.24;101760.69;5038340;28;45504;-55
2022/04/28 01:44:15;;;;;;;;;35.50;29.25;;;;;13.09;50.26;101733.06;5038106;28;46237;-49
2022/04/28 01:46:41;;;;;;;;;33.50;32.75;;;;;13.15;50.36;101757.03;5036549;28;45443;-53
2022/04/28 01:49:07;;;;;;;;;38.25;33.50;;;;;13.06;50.73;101755.50;5038282;28;45240;-53
2022/04/28 01:57:00;;;;;;;;;40.60;35.40;;;;;12.96;51.28;101760.56;5037843;28;45762;-51
2022/04/28 01:59:26;;;;;;;;;33.50;29.50;;;;;12.95;51.24;101759.69;5037964;28;45246;-48
2022/04/28 02:01:52;;;;;;;;;38.25;32.75;;;;;12.77;51.35;101749.22;5037864;28;45778;-55
2022/04/28 02:04:17;;;;;;;;;36.75;33.75;;;;;12.78;51.58;101772.06;5038006;28;45408;-56
2022/04/28 02:06:43;;;;;;;;;35.00;33.25;;;;;12.81;51.71;101769.78;5037444;28;45371;-54
2022/04/28 02:09:09;;;;;;;;;34.00;29.75;;;;;12.88;51.66;101770.66;5037980;28;45363;-52
2022/04/28 02:11:34;;;;;;;;;33.00;32.50;;;;;12.82;51.75;101770.63;5037062;28;45461;-54
2022/04/28 02:14:00;;;;;;;;;34.50;29.25;;;;;12.57;51.73;101740.78;5037565;28;46666;-53
2022/04/28 02:16:25;;;;;;;;;33.50;32.00;;;;;12.73;51.67;101765.28;5037490;28;45464;-54
2022/04/28 02:18:51;;;;;;;;;36.50;33.25;;;;;12.67;51.98;101781.75;5037452;28;45390;-52
2022/04/28 02:21:16;;;;;;;;;40.25;34.00;;;;;12.60;52.08;101779.78;5037535;28;45407;-52
2022/04/28 02:23:41;;;;;;;;;34.50;34.00;;;;;12.34;52.24;101745.50;5037103;28;45889;-53
2022/04/28 02:26:07;;;;;;;;;37.50;32.75;;;;;12.49;52.46;101769.31;5037302;28;45401;-54
2022/04/28 02:28:32;;;;;;;;;38.50;35.00;;;;;12.62;52.10;101776.84;5036415;28;45398;-53
2022/04/28 02:30:58;;;;;;;;;39.75;32.25;;;;;12.60;51.89;101776.22;5037433;28;45358;-50
2022/04/28 02:33:23;;;;;;;;;32.75;30.25;;;;;12.52;51.94;101752.41;5037366;28;46499;-53
2022/04/28 02:35:49;;;;;;;;;32.25;28.00;;;;;12.68;51.80;101761.41;5036923;28;45320;-57
2022/04/28 02:38:14;;;;;;;;;36.00;26.25;;;;;12.46;52.19;101758.72;5036190;28;45404;-52
2022/04/28 02:40:40;;;;;;;;;40.50;33.50;;;;;12.56;52.30;101785.91;5037465;28;45510;-50
2022/04/28 02:43:05;;;;;;;;;35.00;29.75;;;;;12.58;52.10;101790.16;5036681;28;45706;-56
2022/04/28 02:45:46;;;;;;;;;35.25;29.25;;;;;12.56;52.28;101789.53;5037323;28;45307;-51
2022/04/28 02:48:12;;;;;;;;;36.20;31.80;;;;;12.41;52.60;101791.50;5036859;28;45314;-53
2022/04/28 02:50:37;;;;;;;;;33.00;27.50;;;;;12.36;53.04;101789.34;5036175;28;45376;-54
2022/04/28 02:53:03;;;;;;;;;34.50;30.00;;;;;12.42;52.63;101777.53;5036564;28;47009;-53
2022/04/28 02:55:29;;;;;;;;;38.00;27.50;;;;;12.57;52.24;101790.38;5035873;28;45439;-50
2022/04/28 02:57:54;;;;;;;;;33.50;31.50;;;;;12.61;52.41;101787.00;5036572;28;45300;-56
2022/04/28 03:00:20;;;;;;;;;31.75;29.50;;;;;12.48;51.55;101759.38;5037221;28;45340;-56
2022/04/28 03:02:45;;;;;;;;;22.50;22.50;;;;;12.68;51.90;101787.06;5036676;28;45806;-50
2022/04/28 03:05:11;;;;;;;;;33.25;29.50;;;;;12.28;52.04;101746.28;5036773;28;45358;-52
2022/04/28 03:10:49;;;;;;;;;41.00;34.00;;;;;12.57;51.99;101793.97;5036893;28;45248;-50
2022/04/28 03:13:22;;;;;;;;;32.00;28.40;;;;;12.54;52.16;101797.13;5035977;28;45579;-53
2022/04/28 03:15:48;;;;;;;;;31.40;27.40;;;;;12.49;52.21;101796.84;5036839;28;45310;-56
2022/04/28 03:18:14;;;;;;;;;33.50;29.50;;;;;12.54;52.12;101799.03;5068662;28;45454;-57
2022/04/28 03:20:40;;;;;;;;;30.40;28.60;;;;;12.33;52.08;101774.06;5035648;28;45374;-56
2022/04/28 03:23:06;;;;;;;;;34.80;32.60;;;;;12.42;52.54;101801.47;5035771;28;47382;-55
2022/04/28 03:25:31;;;;;;;;;35.00;29.50;;;;;12.37;52.15;101807.56;5036485;28;45359;-55
2022/04/28 03:27:57;;;;;;;;;42.00;32.25;;;;;12.45;51.99;101801.91;5068898;28;45366;-53
2022/04/28 03:30:23;;;;;;;;;34.80;28.80;;;;;12.39;52.62;101799.13;5036403;28;45545;-54
2022/04/28 03:32:49;;;;;;;;;28.75;27.25;;;;;12.32;52.65;101801.78;5068440;28;47910;-50
2022/04/28 03:35:14;;;;;;;;;35.00;29.75;;;;;12.17;52.69;101771.63;5036011;28;45867;-51
2022/04/28 03:37:40;;;;;;;;;32.50;26.25;;;;;12.43;52.58;101797.69;5036516;28;45459;-54
2022/04/28 03:40:07;;;;;;;;;36.60;30.00;;;;;12.35;52.48;101795.91;5036487;28;45666;-51
2022/04/28 03:42:33;;;;;;;;;32.20;29.00;;;;;12.40;52.83;101800.81;5034637;28;45572;-53
2022/04/28 03:44:58;;;;;;;;;36.40;32.60;;;;;12.36;52.19;101796.75;5036229;28;45475;-52
2022/04/28 03:47:24;;;;;;;;;31.25;28.50;;;;;12.23;52.37;101759.81;5068232;28;45349;-52
2022/04/28 03:49:49;;;;;;;;;30.25;27.00;;;;;12.29;52.14;101772.78;5036590;28;45443;-49
2022/04/28 03:52:15;;;;;;;;;37.00;29.50;;;;;12.40;51.86;101776.03;5035834;28;46286;-57
2022/04/28 03:54:40;;;;;;;;;34.25;29.00;;;;;12.47;52.29;101807.22;5036008;28;45681;-56
2022/04/28 03:57:06;;;;;;;;;31.75;28.50;;;;;12.21;52.75;101786.66;5036064;28;45382;-53
2022/04/28 03:59:32;;;;;;;;;41.50;34.50;;;;;12.22;52.68;101782.03;5035707;28;45255;-53
2022/04/28 04:01:58;;;;;;;;;39.00;33.40;;;;;12.34;52.71;101819.81;5067649;28;47033;-56
2022/04/28 04:04:23;;;;;;;;;38.00;34.50;;;;;12.12;52.63;101774.09;5033894;28;45307;-51
2022/04/28 04:06:49;;;;;;;;;37.25;31.75;;;;;12.24;52.51;101777.16;5023540;28;45450;-57
2022/04/28 04:09:14;;;;;;;;;31.50;28.50;;;;;12.44;52.38;101813.16;5018410;28;45761;-53
2022/04/28 04:11:40;;;;;;;;;32.25;32.00;;;;;12.45;52.21;101803.84;5035259;28;46423;-52
2022/04/28 04:14:05;;;;;;;;;32.25;27.75;;;;;12.43;52.50;101814.19;5035675;28;45501;-53
2022/04/28 04:16:31;;;;;;;;;36.25;33.50;;;;;12.38;52.28;101806.50;4994121;27;45994;-56
2022/04/28 04:18:56;;;;;;;;;28.75;27.75;;;;;12.44;52.34;101815.91;5064339;28;45372;-51
2022/04/28 04:21:22;;;;;;;;;32.25;28.25;;;;;12.18;51.97;101767.81;5055637;28;46377;-51
2022/04/28 04:23:47;;;;;;;;;36.25;32.75;;;;;12.44;52.32;101821.41;5053973;28;45438;-56
2022/04/28 04:26:13;;;;;;;;;35.75;32.00;;;;;12.44;52.45;101826.91;5055791;28;45320;-52
2022/04/28 04:28:38;;;;;;;;;30.00;27.25;;;;;12.49;52.22;101816.13;5054116;28;45575;-50
2022/04/28 04:33:48;;;;;;;;;25.80;23.00;;;;;12.30;53.30;101826.78;5054235;28;45595;-55
2022/04/28 04:36:13;;;;;;;;;36.75;30.50;;;;;12.29;52.81;101819.59;5059252;28;45457;-51
2022/04/28 04:38:39;;;;;;;;;37.75;32.00;;;;;12.40;52.74;101833.84;5059107;28;45369;-50
2022/04/28 04:41:05;;;;;;;;;33.50;28.00;;;;;12.40;52.51;101834.72;5057334;28;45894;-54
2022/04/28 04:43:31;;;;;;;;;36.20;31.80;;;;;12.12;52.89;101796.94;5058626;28;45246;-55
2022/04/28 04:45:56;;;;;;;;;36.00;31.75;;;;;12.43;52.65;101841.75;5057919;28;45761;-52
2022/04/28 04:48:22;;;;;;;;;34.25;31.00;;;;;12.48;52.44;101847.47;5058925;28;45256;-51
2022/04/28 04:50:48;;;;;;;;;34.80;32.20;;;;;12.49;52.57;101840.06;5058636;28;46381;-53
2022/04/28 04:53:14;;;;;;;;;40.25;35.25;;;;;12.34;52.49;101819.81;5058696;28;45398;-56
2022/04/28 04:55:39;;;;;;;;;33.75;33.25;;;;;12.38;53.01;101839.53;5058708;28;45490;-54
2022/04/28 04:58:05;;;;;;;;;38.50;29.75;;;;;12.29;53.17;101843.50;5058824;28;45550;-50
2022/04/28 05:00:31;;;;;;;;;35.40;31.60;;;;;12.30;53.18;101843.31;5058798;28;46358;-53
2022/04/28 05:02:56;;;;;;;;;34.75;32.00;;;;;12.27;53.22;101849.19;5058641;28;45324;-54
2022/04/28 05:05:22;;;;;;;;;29.25;27.00;;;;;12.20;53.30;101845.53;5050658;28;45318;-49
2022/04/28 05:07:47;;;;;;;;;38.50;35.00;;;;;12.14;53.53;101843.53;5038815;28;45401;-53
2022/04/28 05:10:13;;;;;;;;;37.75;34.25;;;;;12.14;53.87;101849.91;5015193;28;45684;-53
2022/04/28 05:12:38;;;;;;;;;40.75;34.50;;;;;12.12;54.08;101856.66;5038703;28;45351;-50
2022/04/28 05:15:04;;;;;;;;;45.75;37.75;;;;;12.04;54.45;101852.13;5038499;28;45340;-54
2022/04/28 05:17:30;;;;;;;;;42.50;36.25;;;;;12.03;54.07;101856.78;5039134;28;46100;-54
2022/04/28 05:19:58;;;;;;;;;38.25;33.75;;;;;12.13;53.92;101863.88;5037970;28;46203;-53
2022/04/28 05:22:24;;;;;;;;;39.00;32.80;;;;;12.14;54.09;101858.16;5038299;28;45429;-50
2022/04/28 05:24:50;;;;;;;;;33.00;26.80;;;;;12.17;53.66;101873.44;5038708;28;45457;-50
2022/04/28 05:27:16;;;;;;;;;38.75;34.25;;;;;12.17;53.86;101873.44;5038753;28;45524;-56
2022/04/28 05:29:41;;;;;;;;;38.75;34.00;;;;;12.17;54.02;101878.94;5038322;28;45714;-56
2022/04/28 05:32:07;;;;;;;;;37.50;32.75;;;;;12.19;53.76;101872.22;5038123;28;45349;-50
2022/04/28 05:34:33;;;;;;;;;40.20;37.00;;;;;12.11;53.68;101872.31;5038128;28;45487;-49
2022/04/28 05:36:58;;;;;;;;;45.75;37.25;;;;;12.14;53.72;101882.94;5037085;28;45362;-53
2022/04/28 05:39:24;;;;;;;;;37.25;33.50;;;;;12.03;54.35;101892.56;5020065;28;47528;-54
2022/04/28 05:41:49;;;;;;;;;40.50;36.50;;;;;12.09;54.47;101890.06;5037099;28;45321;-50
2022/04/28 05:46:59;;;;;;;;;50.60;38.00;;;;;12.12;54.12;101897.94;5036797;28;45454;-52
2022/04/28 05:49:25;;;;;;;;;39.75;34.50;;;;;11.97;54.59;101890.56;5037727;28;46320;-53
2022/04/28 05:51:52;;;;;;;;;46.50;37.50;;;;;11.96;54.48;101901.75;5036433;28;45163;-52
2022/04/28 05:54:18;;;;;;;;;39.80;34.60;;;;;11.99;54.28;101895.84;5037767;28;45770;-53
2022/04/28 05:56:43;;;;;;;;;40.00;35.25;;;;;12.05;54.26;101901.47;5038092;28;45358;-48
2022/04/28 05:59:10;;;;;;;;;45.25;35.50;;;;;12.11;54.02;101885.22;5037149;28;46024;-57
2022/04/28 06:01:37;;;;;;;;;45.20;37.60;;;;;12.31;53.76;101900.06;5036265;28;45396;-55
2022/04/28 06:04:03;;;;;;;;;44.20;36.80;;;;;12.29;53.67;101904.91;5037488;28;45267;-56
2022/04/28 06:06:29;;;;;;;;;46.80;38.40;;;;;12.17;53.69;101876.19;5037478;28;45318;-56
2022/04/28 06:08:54;;;;;;;;;42.25;37.25;;;;;12.34;53.66;101913.41;5037259;28;46864;-50
2022/04/28 06:11:20;;;;;;;;;49.75;40.50;;;;;12.34;53.60;101909.84;5037376;28;45794;-55
2022/04/28 06:13:46;;;;;;;;;44.25;35.00;;;;;12.46;53.40;101908.28;5019333;28;45680;-56
2022/04/28 06:16:11;;;;;;;;;38.25;34.75;;;;;12.46;53.41;101912.91;5049227;28;45749;-54
2022/04/28 06:18:37;;;;;;;;;41.50;37.75;;;;;12.34;53.22;101887.81;5054201;28;46055;-55
2022/04/28 06:21:02;;;;;;;;;41.75;34.25;;;;;12.58;53.18;101922.38;5057162;28;45353;-52
2022/04/28 06:23:28;;;;;;;;;42.50;35.50;;;;;12.63;53.16;101915.44;5057442;28;45413;-52
2022/04/28 06:25:53;;;;;;;;;38.50;34.75;;;;;12.57;53.16;101909.66;5057411;28;45343;-52
2022/04/28 06:28:19;;;;;;;;;45.50;37.25;;;;;12.58;53.39;101925.13;5057076;28;45407;-51
2022/04/28 06:30:44;;;;;;;;;53.50;41.75;;;;;12.45;53.01;101894.69;5057454;28;45697;-49
2022/04/28 06:33:10;;;;;;;;;42.75;37.50;;;;;12.68;52.98;101921.16;5057104;28;45543;-56
2022/04/28 06:35:36;;;;;;;;;50.00;38.50;;;;;12.69;52.81;101918.22;5057499;28;45384;-56
2022/04/28 06:38:01;;;;;;;;;40.25;36.00;;;;;12.65;52.69;101905.06;5055737;28;45667;-53
2022/04/28 06:40:27;;;;;;;;;45.50;37.50;;;;;12.73;52.50;101935.22;5056809;28;45427;-51
2022/04/28 06:42:52;;;;;;;;;47.00;39.50;;;;;12.69;53.41;101939.41;5057011;28;45436;-50
2022/04/28 06:45:18;;;;;;;;;40.75;36.75;;;;;12.57;53.06;101937.19;5057349;28;45637;-56
2022/04/28 06:47:44;;;;;;;;;44.75;37.50;;;;;12.49;53.47;101934.53;5056620;28;47064;-52
2022/04/28 06:50:09;;;;;;;;;50.00;37.75;;;;;12.49;53.63;101934.53;5056750;28;45378;-50
2022/04/28 06:52:38;;;;;;;;;45.50;39.50;;;;;12.53;53.52;101930.34;5056884;28;45247;-54
2022/04/28 06:55:05;;;;;;;;;49.60;36.60;;;;;12.56;53.65;101945.63;5056985;28;45336;-52
2022/04/28 06:57:30;;;;;;;;;48.20;37.80;;;;;12.67;53.25;101942.38;5055687;28;46430;-54
2022/04/28 06:59:56;;;;;;;;;45.25;36.75;;;;;12.82;53.17;101942.28;5055644;27;45357;-54
2022/04/28 07:02:21;;;;;;;;;43.25;37.50;;;;;12.59;52.87;101898.41;5057115;28;45309;-52
2022/04/28 07:04:47;;;;;;;;;47.00;37.25;;;;;12.88;52.52;101944.25;5056958;28;45581;-56
2022/04/28 07:07:13;;;;;;;;;47.25;39.75;;;;;12.88;52.65;101937.91;5037819;28;46198;-59
2022/04/28 07:09:39;;;;;;;;;52.60;40.80;;;;;13.04;52.37;101944.16;5035064;28;45366;-54
2022/04/28 07:12:05;;;;;;;;;43.00;37.25;;;;;13.15;52.62;101949.97;5037077;28;45326;-52
2022/04/28 07:14:30;;;;;;;;;51.25;39.75;;;;;13.19;52.36;101950.47;5036900;28;45611;-56
2022/04/28 07:16:56;;;;;;;;;44.25;37.25;;;;;13.24;51.91;101947.94;5036739;28;45556;-49
2022/04/28 07:19:21;;;;;;;;;47.00;37.75;;;;;13.26;51.68;101950.50;5036663;28;45373;-56
2022/04/28 07:21:47;;;;;;;;;45.25;37.50;;;;;13.17;52.27;101924.97;5036335;28;45723;-52
2022/04/28 07:24:12;;;;;;;;;46.75;38.50;;;;;13.33;51.69;101948.63;5036659;28;45580;-55
2022/04/28 07:26:38;;;;;;;;;51.75;39.50;;;;;13.42;51.61;101947.44;5035011;28;45636;-54
2022/04/28 07:29:05;;;;;;;;;48.00;38.00;;;;;13.32;51.77;101916.59;5035234;28;45373;-52
2022/04/28 07:31:31;;;;;;;;;47.60;39.80;;;;;13.54;51.51;101930.34;5036810;28;45382;-54
2022/04/28 07:33:56;;;;;;;;;50.75;39.00;;;;;13.76;51.48;101950.44;5036221;28;45657;-54
2022/04/28 07:36:22;;;;;;;;;47.50;39.00;;;;;13.87;51.13;101950.91;5036249;28;46779;-54
2022/04/28 07:38:47;;;;;;;;;43.75;36.25;;;;;13.90;50.70;101958.78;5036027;28;45444;-53
2022/04/28 07:41:14;;;;;;;;;44.00;37.50;;;;;14.01;50.26;101960.97;5036527;28;45456;-50
2022/04/28 07:43:40;;;;;;;;;43.60;36.80;;;;;13.81;50.13;101912.03;5035320;28;45314;-51
2022/04/28 07:46:05;;;;;;;;;51.25;39.50;;;;;14.10;50.15;101956.94;5036113;28;45399;-56
2022/04/28 07:48:31;;;;;;;;;52.50;41.75;;;;;14.22;50.27;101948.94;5036115;28;45370;-54
2022/04/28 07:50:56;;;;;;;;;42.50;38.25;;;;;14.27;49.91;101945.56;5034659;28;45259;-56
2022/04/28 07:53:22;;;;;;;;;46.00;39.75;;;;;14.41;49.41;101954.72;5036569;28;45555;-52
2022/04/28 07:58:31;;;;;;;;;47.80;37.80;;;;;14.55;48.98;101952.84;5035502;28;45358;-53
2022/04/28 08:00:58;;;;;;;;;44.00;39.75;;;;;14.68;49.31;101959.47;5034133;28;45366;-50
2022/04/28 08:03:23;;;;;;;;;45.20;37.60;;;;;14.72;48.55;101955.19;5034878;28;45390;-51
2022/04/28 08:05:48;;;;;;;;;47.25;39.00;;;;;14.86;48.60;101954.22;5035268;28;46150;-54
2022/04/28 08:08:14;;;;;;;;;49.50;36.00;;;;;15.01;48.13;101964.22;5027091;28;45430;-55
2022/04/28 08:10:40;;;;;;;;;44.50;37.00;;;;;15.07;48.43;101960.59;5010878;28;45229;-53
2022/04/28 08:13:05;;;;;;;;;46.00;38.00;;;;;14.91;48.14;101931.47;5034818;28;45342;-50
2022/04/28 08:15:30;;;;;;;;;41.25;36.25;;;;;14.96;47.64;101926.16;5033999;28;46473;-51
2022/04/28 08:17:56;;;;;;;;;38.50;35.25;;;;;15.17;47.80;101955.47;5034719;28;45417;-54
2022/04/28 08:20:22;;;;;;;;;40.50;36.00;;;;;15.34;47.63;101960.59;5034587;28;45378;-56
2022/04/28 08:22:47;;;;;;;;;47.00;35.75;;;;;15.38;47.50;101961.84;5034369;28;45434;-52
2022/04/28 08:25:12;;;;;;;;;43.50;35.75;;;;;15.35;47.12;101961.41;5034408;28;45606;-55
2022/04/28 08:27:38;;;;;;;;;35.75;33.25;;;;;15.46;46.81;101974.59;5034003;28;45503;-57
2022/04/28 08:30:04;;;;;;;;;46.25;36.00;;;;;15.60;46.96;101961.63;5066411;28;45559;-53
2022/04/28 08:32:30;;;;;;;;;41.40;36.00;;;;;15.68;46.86;101968.81;5034859;28;45513;-50
2022/04/28 08:34:55;;;;;;;;;37.75;34.50;;;;;15.79;46.00;101972.84;5034622;28;46395;-56
2022/04/28 08:37:21;;;;;;;;;38.50;32.25;;;;;15.61;45.74;101913.50;5050178;27;45913;-57
2022/04/28 08:39:47;;;;;;;;;41.75;36.75;;;;;16.02;45.30;101972.41;5032038;28;45461;-55
2022/04/28 08:42:13;;;;;;;;;46.00;34.75;;;;;16.12;45.81;101971.94;5034881;28;45295;-54
2022/04/28 08:44:39;;;;;;;;;42.40;34.00;;;;;16.00;45.66;101932.97;5035072;28;46459;-55
2022/04/28 08:47:04;;;;;;;;;36.75;32.00;;;;;16.29;45.60;101971.41;5034129;28;45299;-60
2022/04/28 08:49:32;;;;;;;;;36.75;34.50;;;;;16.30;45.21;101967.56;5035146;28;45424;-59
2022/04/28 08:51:58;;;;;;;;;39.60;36.00;;;;;16.36;45.00;101967.53;5034080;28;45449;-58
2022/04/28 08:54:28;;;;;;;;;35.60;32.00;;;;;16.37;45.19;101947.06;5066419;28;46985;-57
2022/04/28 08:56:56;;;;;;;;;33.00;32.20;;;;;16.57;45.14;101964.66;5034445;28;45319;-56
2022/04/28 08:59:22;;;;;;;;;39.40;33.40;;;;;16.65;44.55;101954.16;5033247;28;46015;-54
2022/04/28 09:01:47;;;;;;;;;40.50;34.75;;;;;16.79;44.43;101959.59;5035102;28;45742;-58
2022/04/28 09:04:13;;;;;;;;;37.75;32.25;;;;;16.62;43.54;101937.97;5034197;28;45718;-58
2022/04/28 09:06:40;;;;;;;;;27.50;26.75;;;;;16.63;43.32;101914.72;5053050;28;45387;-54
2022/04/28 09:09:16;;;;;;;;;28.60;28.60;;;;;16.88;43.24;101952.72;5035411;28;45408;-55
2022/04/28 09:11:42;;;;;;;;;33.60;28.60;;;;;16.98;43.17;101951.38;5007356;28;45464;-58
2022/04/28 09:14:09;;;;;;;;;36.60;32.00;;;;;17.02;43.34;101949.88;5031440;28;45622;-58
2022/04/28 09:16:38;;;;;;;;;29.60;27.40;;;;;17.05;43.00;101932.78;5034271;28;45242;-57
2022/04/28 09:19:04;;;;;;;;;28.00;25.00;;;;;17.15;43.38;101943.34;5035373;28;45365;-55
2022/04/28 09:21:33;;;;;;;;;21.00;20.25;;;;;17.19;42.95;101934.34;5037407;28;45385;-58
2022/04/28 09:23:59;;;;;;;;;27.60;26.80;;;;;17.30;42.81;101926.38;5035671;28;47522;-58
2022/04/28 09:26:25;;;;;;;;;26.25;22.50;;;;;17.50;42.37;101936.41;5020491;28;45366;-56
2022/04/28 09:28:51;;;;;;;;;28.25;27.00;;;;;17.36;41.90;101897.72;5038194;28;45460;-58
2022/04/28 09:31:17;;;;;;;;;29.80;26.20;;;;;17.59;41.67;101935.03;5038184;28;45436;-57
2022/04/28 09:33:46;;;;;;;;;28.25;25.50;;;;;17.52;42.00;101915.69;5037482;28;46254;-59
2022/04/28 09:36:12;;;;;;;;;26.80;26.60;;;;;17.59;41.66;101923.91;5015993;27;45414;-55
2022/04/28 09:38:38;;;;;;;;;29.20;25.00;;;;;17.72;41.50;101937.66;5038072;28;45381;-56
2022/04/28 09:43:51;;;;;;;;;28.00;26.00;;;;;17.77;41.06;101930.56;5020933;27;45502;-55
2022/04/28 09:46:22;;;;;;;;;31.00;23.50;;;;;17.87;41.08;101933.63;5018365;28;45302;-54
2022/04/28 09:48:48;;;;;;;;;26.20;24.60;;;;;17.97;41.39;101941.41;5052970;27;45706;-55
2022/04/28 09:51:13;;;;;;;;;26.50;26.00;;;;;18.07;40.32;101940.91;5053259;28;45645;-58
2022/04/28 09:53:39;;;;;;;;;26.75;24.00;;;;;18.23;40.57;101931.94;5052731;28;45716;-60
2022/04/28 09:56:05;;;;;;;;;23.25;22.25;;;;;18.16;39.90;101906.16;5036967;28;45327;-56
2022/04/28 09:58:31;;;;;;;;;23.80;23.20;;;;;18.33;39.68;101928.59;5035022;28;45468;-56
2022/04/28 10:01:02;;;;;;;;;25.00;22.50;;;;;18.38;39.67;101927.88;5037753;28;45443;-56
2022/04/28 10:03:33;;;;;;;;;26.20;22.40;;;;;18.42;39.41;101934.66;5035791;28;46460;-59
2022/04/28 10:05:59;;;;;;;;;21.80;20.80;;;;;18.28;39.03;101890.41;5036803;28;45463;-53
2022/04/28 10:08:25;;;;;;;;;21.80;19.80;;;;;18.43;38.38;101925.25;5037867;28;45394;-57
2022/04/28 10:10:55;;;;;;;;;19.75;19.50;;;;;18.20;38.44;101892.66;5033706;28;45322;-57
2022/04/28 10:13:21;;;;;;;;;18.80;18.40;;;;;18.46;38.79;101918.38;5057252;28;46573;-56
2022/04/28 10:15:48;;;;;;;;;24.25;21.75;;;;;18.51;38.62;101912.94;5055356;28;45436;-55
2022/04/28 10:18:16;;;;;;;;;19.00;19.00;;;;;18.69;39.13;101912.03;5039634;28;45506;-54
2022/04/28 10:20:43;;;;;;;;;20.60;19.40;;;;;18.90;38.05;101915.31;5057366;28;45351;-53
2022/04/28 10:23:10;;;;;;;;;23.00;23.00;;;;;18.97;38.35;101913.28;5049822;28;46126;-57
2022/04/28 10:34:10;;;;;;;;;19.20;18.40;;;;;19.55;37.38;101907.97;5036447;28;45911;-56
2022/04/28 10:36:56;;;;;;;;;19.40;17.80;;;;;19.57;36.13;101907.72;5035875;28;45347;-53
2022/04/28 10:39:54;;;;;;;;;16.80;14.00;;;;;19.61;35.82;101895.84;5019361;28;45802;-57
2022/04/28 10:42:42;;;;;;;;;15.80;15.80;;;;;19.61;35.42;101890.28;5036494;28;45429;-53
2022/04/28 10:45:24;;;;;;;;;18.00;16.00;;;;;19.45;36.41;101855.69;5026792;27;46478;-56
2022/04/28 10:48:45;;;;;;;;;17.60;17.60;;;;;19.83;36.09;101894.34;5035505;28;45591;-58
2022/04/28 10:51:12;;;;;;;;;16.60;15.80;;;;;19.96;36.41;101887.69;5034386;28;45501;-60
2022/04/28 10:54:09;;;;;;;;;14.20;14.20;;;;;20.05;35.58;101886.19;5037155;28;45820;-53
2022/04/28 10:56:40;;;;;;;;;17.00;17.00;;;;;20.01;35.57;101887.78;5035770;28;46551;-56
2022/04/28 10:59:29;;;;;;;;;15.80;15.00;;;;;20.03;34.85;101885.59;5034325;28;45523;-57
2022/04/28 11:01:55;;;;;;;;;17.40;17.40;;;;;20.03;35.81;101886.41;5036927;28;45375;-55
2022/04/28 11:04:24;;;;;;;;;12.80;12.60;;;;;20.06;34.92;101885.06;5036504;28;45571;-53
2022/04/28 11:06:57;;;;;;;;;14.20;14.20;;;;;20.06;33.12;101882.28;5036410;28;46203;-52
2022/04/28 11:09:33;;;;;;;;;12.20;12.20;;;;;19.91;32.70;101858.59;5036411;28;45293;-56
2022/04/28 11:12:13;;;;;;;;;12.20;10.40;;;;;20.12;32.15;101886.03;5027291;28;47159;-52
2022/04/28 11:15:03;;;;;;;;;8.60;8.60;;;;;20.23;31.89;101881.50;5033623;28;45402;-53
2022/04/28 11:17:31;;;;;;;;;13.00;12.40;;;;;20.36;32.11;101880.34;5035291;28;45258;-49
2022/04/28 11:20:03;;;;;;;;;11.00;11.00;;;;;20.51;31.87;101888.16;5036589;28;45554;-55
2022/04/28 11:22:29;;;;;;;;;15.20;15.20;;;;;20.72;31.84;101884.59;5036278;28;45390;-54
2022/04/28 11:24:56;;;;;;;;;11.25;11.25;;;;;20.96;31.07;101890.06;5036974;28;45489;-50
2022/04/28 11:27:22;;;;;;;;;11.80;11.80;;;;;21.15;30.58;101880.56;5036049;28;46980;-52
2022/04/28 11:29:52;;;;;;;;;10.60;10.60;;;;;21.03;29.90;101855.53;5036511;28;45457;-53
2022/04/28 11:32:18;;;;;;;;;9.80;9.80;;;;;21.21;30.16;101883.19;5035101;28;45362;-51
2022/04/28 11:34:44;;;;;;;;;11.75;10.75;;;;;21.23;30.23;101894.94;5035326;28;45335;-56
2022/04/28 11:37:17;;;;;;;;;10.00;9.20;;;;;21.24;29.90;101895.78;5035983;28;45904;-53
2022/04/28 11:39:47;;;;;;;;;14.60;12.40;;;;;21.23;30.02;101894.06;5036447;28;45774;-51